aviador You're here:

KCHO Decoded Metar

CHARLOTTESVILLE in VA, USA
Report Time2018-07-16 08:07:00
UTC Time2018-07-16 08:36:34
Flight Rules vfr VFR
WindCalm
Visibility9999 m
Phenomena:N/A
Clouds:Scattered 002 Hf
Expected CloudBase > 800 ft AGL from Temp-Dew spread
CeilingNone
Temp24°C (ISA +10)
Dew Point22°C (89% RH)
QNH1017 hPa
Density Alt2,034 ft
Elevation630 ft
Report Wrong Elevation
Raw Report
KCHO 160807Z AUTO 00000KT 7SM SCT002 24/22 A3002 RMK AO2
T02390217=

Extra information for KCHO:More info

Metar Taf Metar & Taf Last 4 Metars F.Rules Stats Wind Profile Meteogram Temp Stats Airport Information Weather charts Add Link Nearby VenuesMetar ALERT Operation Metar Decoded Social comments

AIRNAV info for KCHO